EDT,Max TemperatureF,Mean TemperatureF,Min TemperatureF,Max Dew PointF,MeanDew PointF,Min DewpointF,Max Humidity, Mean Humidity, Min Humidity, Max Sea Level PressureIn, Mean Sea Level PressureIn, Min Sea Level PressureIn, Max VisibilityMiles, Mean VisibilityMiles, Min VisibilityMiles, Max Wind SpeedMPH, Mean Wind SpeedMPH, Max Gust SpeedMPH,PrecipitationIn, CloudCover, Events, WindDirDegrees
2013-7-1,77,70,62,68,66,63,100,87,65,30.05,29.97,29.91,10,9,2,7,2,,0.07,7,Rain-Thunderstorm,136
2013-7-2,75,70,66,70,68,64,100,96,83,30.24,30.14,30.05,10,8,0,12,2,17,2.13,8,Rain-Thunderstorm,157
2013-7-3,80,74,68,72,69,68,100,94,69,30.30,30.26,30.20,10,7,0,10,2,17,1.00,7,Fog-Rain,136
2013-7-4,82,74,66,72,69,66,100,91,70,30.34,30.30,30.24,10,9,2,17,3,25,0.60,7,Rain-Thunderstorm,100
2013-7-5,80,72,64,72,69,64,100,92,70,30.34,30.30,30.27,10,9,2,10,3,18,1.21,5,Rain-Thunderstorm,175
2013-7-6,80,74,68,70,69,68,100,87,65,30.32,30.28,30.20,10,9,0,14,2,,0.25,7,Fog-Rain-Thunderstorm,159
2013-7-7,82,75,68,73,70,64,100,93,70,30.27,30.22,30.16,10,9,4,12,1,17,0.28,7,Rain-Thunderstorm,207
2013-7-8,86,75,64,70,68,64,100,84,51,30.28,30.24,30.18,10,8,0,8,1,,0.02,5,Fog-Rain,155
2013-7-9,86,77,68,72,68,63,100,80,45,30.25,30.21,30.14,10,9,0,6,1,,0.00,2,Fog-Thunderstorm,162
2013-7-10,84,74,64,72,70,64,100,86,66,30.19,30.11,30.04,10,10,3,8,3,16,0.00,3,Rain-Thunderstorm,209
2013-7-11,80,74,69,72,70,68,100,91,69,30.05,30.02,29.96,10,10,5,10,2,18,0.00,6,Rain-Thunderstorm,150
2013-7-12,78,71,64,68,67,64,100,88,69,30.13,30.03,29.97,10,9,0,12,3,,0.00,4,Fog-Rain-Thunderstorm,65
2013-7-13,77,70,64,70,66,63,100,90,74,30.24,30.19,30.13,10,10,5,12,4,,0.06,8,Rain,60
2013-7-14,82,75,68,72,69,66,100,90,61,30.40,30.32,30.22,10,8,2,12,6,21,0.74,6,Rain,91
2013-7-15,84,74,64,70,67,64,100,83,54,30.44,30.40,30.36,10,9,4,6,1,,0.00,3,,90
2013-7-16,87,74,62,73,68,63,100,82,52,30.41,30.37,30.31,10,10,5,6,0,,0.00,0,Thunderstorm,137
2013-7-17,87,78,68,72,69,68,100,84,55,30.36,30.31,30.25,10,10,7,12,2,17,0.00,2,Rain-Thunderstorm,21
2013-7-18,87,76,66,72,69,64,100,80,46,30.27,30.23,30.15,10,9,4,7,1,,0.00,0,,159
2013-7-19,87,78,68,73,71,68,100,83,58,30.20,30.15,30.08,10,8,2,10,2,,0.00,1,Thunderstorm,231
2013-7-20,82,75,68,73,70,68,100,89,70,30.12,30.08,30.03,10,9,4,10,2,18,0.02,3,Rain-Thunderstorm,229
2013-7-21,86,75,64,73,69,64,100,92,62,30.10,30.06,30.03,10,7,0,7,1,,0.01,4,Fog-Rain-Thunderstorm,161
2013-7-22,82,75,68,72,70,68,100,92,62,30.08,29.99,29.90,10,7,0,13,1,24,1.87,6,Fog-Rain-Thunderstorm,200
2013-7-23,87,76,64,72,68,64,100,82,48,29.95,29.90,29.85,10,9,1,12,3,17,0.11,3,Rain,247
2013-7-24,86,75,64,70,66,61,100,79,51,29.97,29.90,29.86,10,9,5,9,1,20,0.00,2,,237
2013-7-25,78,71,64,68,64,61,100,80,57,30.13,30.03,29.96,10,10,7,9,3,,0.00,5,Rain,84
2013-7-26,80,72,64,68,66,63,100,84,58,30.19,30.14,30.10,10,9,4,9,1,,0.00,5,,147
2013-7-27,71,68,66,68,67,64,100,95,83,30.12,30.07,30.02,10,8,1,8,3,,1.64,7,Rain-Thunderstorm,78
2013-7-28,82,73,64,70,67,64,100,88,58,30.10,30.04,30.00,10,7,1,8,1,,0.00,6,Rain-Thunderstorm,196
2013-7-29,82,70,57,66,61,55,100,76,48,30.28,30.18,30.10,10,10,4,7,1,,0.00,2,,153
2013-7-30,78,68,59,68,62,57,100,83,54,30.33,30.28,30.24,10,10,10,6,1,,0.00,4,,110
2013-7-31,69,66,64,68,65,63,100,92,83,30.26,30.19,30.08,10,9,2,7,1,,0.04,7,Rain-Thunderstorm,18